Murjek, Sweden

9:32 PM CET on November 23, 2017 (GMT +0100)
Vidsel Air Base | | Change Station

Elev 600 ft 65.88 °N, 20.15 °E | Updated 12 minutes ago

Overcast
Overcast
27 °F
Feels Like 14 °F
N
17
Wind Variable Wind from ESE

Today
High -- | Low -- °F
--% Chance of Precip.
Yesterday
High -- | Low -- °F
Precip. -- in
Pressure 29.33 in
Visibility 0.7 miles
Clouds
Windchill 14 °F
Dew Point 25 °F
Humidity 93%
Rainfall 0.00 in
Snow Depth Not available.
9:01 AM 1:43 PM
Waxing Crescent, 24% visible
METAR ESPE 232020Z AUTO 11015KT 1100 1000// R11/P2000N R29/P2000N -SN VV012 M03/M04 Q0993 RESN
Pressure 29.33 in
Visibility 0.7 miles
Clouds
Windchill 14 °F
Dew Point 25 °F
Humidity 93%
Rainfall 0.00 in
Snow Depth Not available.
9:01 AM 1:43 PM
Waxing Crescent, 24% visible
METAR ESPE 232020Z AUTO 11015KT 1100 1000// R11/P2000N R29/P2000N -SN VV012 M03/M04 Q0993 RESN

Get Severe Weather Alerts

Thanks for signing up!

Be on the lookout for a verification email in your inbox.

You'll start receiving the daily forecast at 6 AM.

×

10-Day Weather Forecast

×

Almanac

Astronomy

Nov. 23, 2017 Rise Set
Actual Time
Civil Twilight
Nautical Twilight
Astronomical Twilight
Moon
Length of Visible Light
Length of Day
Tomorrow will be .
, % of the Moon is Illuminated

Today's Extremes

Country Highs Country Lows

Community

WunderPhotos

Category 6

Welcome to Category 6. This is the collective home for Weather Underground's featured writeups by Dr. Jeff Masters (right), Bob Henson (left), Chris Burt, and other regular contributors.

Nearby

Air Quality

  Air Quality AQ Index Pollutant
Not available.

Snow Depth

Station Depth Elevation

Earthquake Activity

City Distance Mag. Time & Date
Minimum magnitude displayed is 2.5.

Coastal Water Temperatures

Place Temperature

Stations

Nearby Weather Stations

Station Location Temp. Windchill Dew Point Humidity Wind Precip. Elev Updated Type